COUO2: Red River nr Courtney, OK

                                SHEF ID:       COUO2     Red River nr Courtney, OK
STATION TYPE:

PRECIP ELEVATION STAGE RIV-FLOW BAT-LOAD
in ft ft cfs volt
Ccp-Rev Ccp-Rev Ccp-Rev Ccp-Rev Ccp-Rev
(America/Chicago)
04/03 00:00 ---- ---- 11.46 1091 12.57
04/03 01:00 ---- ---- 11.47 1098 12.57
04/03 02:00 ---- ---- 11.48 1105 12.57
04/03 03:00 ---- ---- 11.48 1105 12.57
04/03 04:00 ---- ---- 11.49 1111 12.57
04/03 05:00 ---- ---- 11.51 1125 12.49
04/03 06:00 ---- ---- 11.52 1132 12.49
04/03 07:00 ---- ---- 11.54 1145 12.49
04/03 08:00 ---- ---- 11.56 1159 12.49
04/03 09:00 ---- ---- 11.58 1172 12.57
04/03 10:00 ---- ---- 11.61 1193 12.57
04/03 11:00 ---- ---- 11.63 1207 12.65
04/03 12:00 ---- ---- 11.65 1221 12.65
04/03 13:00 ---- ---- 11.67 1235 12.89
04/03 14:00 ---- ---- 11.70 1256 12.81
04/03 15:00 ---- ---- 11.73 1277 12.81
04/03 16:00 ---- ---- 11.76 1299 12.73
04/03 17:00 ---- ---- 11.80 1328 12.73
04/03 18:00 ---- ---- 11.84 1357 12.73
04/03 19:00 ---- ---- 11.86 1372 12.65
04/03 20:00 ---- ---- 11.88 1386 12.57
04/03 21:00 ---- ---- 11.90 1401 12.57
04/03 22:00 ---- ---- 11.91 1409 12.57
04/03 23:00 ---- ---- 11.93 1424 12.57
Data processed at Sat 04Apr2026 04:41 GMT

NOTICE: If you are parsing this page

Please convert to using our Data API. Starting early 2026 we will be migrating to: https://water.usace.army.mil with modern pages rendered in JavaScript. When this migration completes you will no longer be able to scrape this page! CWMSDataAPI (CDA)

Timeseries IDs (TSIDs)

TSIDs used from left to right in the data table
COUT.Precip-Inc.Total.1Hour.1Hour.Ccp-Rev
COUT.Stage.Inst.1Hour.0.Ccp-Rev
COUT.Flow.Inst.1Hour.0.Ccp-Rev
COUT.Volt-Battery Load.Inst.1Hour.0.Ccp-Rev

                            

All information presented herein is the property of the government of the United States of America and may be revised or deleted at any time without prior notice. Dissemination of this information without the expressed written consent of the Public Affairs Office, Tulsa District U.S. Army Corps of Engineers is strictly prohibited. These data are gathered electronically and, as presented, have NOT undergone any form of quality control. These data are NOT guaranteed to be valid or correct.